Main page
METAR-TAF:

METAR-TAF

Airports :

Mahshahr Airport

Mahshahr, Iran

latitude: 30-33-23N, longitude: 049-09-07E, elevation: 2 m

Current weather observation

The report was made 25 minutes ago, at 06:00 UTC
Calm wind
Temperature 15°C
Humidity 59%
Pressure 1020 hPa
Visibility 10 km or more
no clouds below 1500 m and no cumulonimbus

METAR: OIAM 220600Z 00000KT CAVOK 15/07 Q1020

Time: 09:55 (06:25 UTC)


TAF: missing

Weather observations and forecasts of more than 4000 airports (METAR and TAF reports).

The available stations are represented by yellow and red dots on the map.

Hover mouse over dot to see the name of the station.

Then click to see weather observations and forecasts.

To change the map : click on the green buttons with a black cross to zoom in, on the green button with a dash to zoom out, or on the green arrows for adjacent maps.


METAR-TAF: